Time;durP1;ratioP1;P1;durP2;ratioP2;P2;SDS_P1;SDS_P2;PMS_P1;PMS_P2;Temp;Humidity;BMP_temperature;BMP_pressure;BME280_temperature;BME280_humidity;BME280_pressure;Samples;Min_cycle;Max_cycle;Signal;HPM_P1;HPM_P2
2022/01/02 00:00:17;;;;;;;;;;;17.30;41.30;;;;;;8299169;28;20363;-48
2022/01/02 00:04:19;;;;;;;;;;;17.30;41.30;;;;;;8298717;28;19929;-47
2022/01/02 00:08:20;;;;;;;;;;;17.30;41.30;;;;;;8298834;28;19925;-47
2022/01/02 00:12:22;;;;;;;;;;;17.30;41.30;;;;;;8298596;28;19917;-48
2022/01/02 00:16:23;;;;;;;;;;;17.20;41.20;;;;;;8298198;28;19913;-47
2022/01/02 00:20:43;;;;;;;;;;;17.20;41.30;;;;;;8298650;28;19918;-48
2022/01/02 00:24:44;;;;;;;;;;;17.20;41.20;;;;;;8297508;28;19922;-48
2022/01/02 00:28:45;;;;;;;;;;;17.20;41.20;;;;;;8298128;28;19917;-47
2022/01/02 00:32:47;;;;;;;;;;;17.20;41.20;;;;;;8298088;28;19924;-47
2022/01/02 00:36:48;;;;;;;;;;;17.20;41.80;;;;;;8298078;28;20322;-48
2022/01/02 00:40:49;;;;;;;;;;;17.20;41.20;;;;;;8297489;28;19972;-47
2022/01/02 00:44:57;;;;;;;;;;;17.20;41.20;;;;;;8297854;28;20000;-48
2022/01/02 00:49:01;;;;;;;;;;;17.10;41.20;;;;;;8298145;28;19913;-48
2022/01/02 00:53:02;;;;;;;;;;;17.10;41.20;;;;;;8297282;28;19918;-48
2022/01/02 00:57:04;;;;;;;;;;;17.10;41.30;;;;;;8297582;28;19921;-47
2022/01/02 01:01:06;;;;;;;;;;;17.10;41.30;;;;;;8297466;28;20003;-47
2022/01/02 01:05:07;;;;;;;;;;;17.10;41.30;;;;;;8296751;28;19925;-47
2022/01/02 01:09:08;;;;;;;;;;;17.10;41.30;;;;;;8297572;28;19914;-48
2022/01/02 01:13:08;;;;;;;;;;;17.20;41.30;;;;;;8297388;28;19964;-48
2022/01/02 01:17:09;;;;;;;;;;;17.20;41.30;;;;;;8297002;28;19928;-49
2022/01/02 01:21:10;;;;;;;;;;;17.20;41.20;;;;;;8297144;28;19921;-47
2022/01/02 01:25:15;;;;;;;;;;;17.20;41.10;;;;;;8297014;28;19948;-48
2022/01/02 01:29:15;;;;;;;;;;;17.20;41.20;;;;;;8296771;28;19913;-47
2022/01/02 01:33:15;;;;;;;;;;;17.20;41.10;;;;;;8297358;28;20000;-48
2022/01/02 01:37:16;;;;;;;;;;;17.20;41.10;;;;;;8303401;28;19937;-47
2022/01/02 01:41:16;;;;;;;;;;;17.20;41.00;;;;;;8302932;28;19922;-47
2022/01/02 01:49:19;;;;;;;;;;;17.20;41.00;;;;;;8303621;28;20373;-47
2022/01/02 01:53:19;;;;;;;;;;;17.20;41.00;;;;;;8302642;28;19926;-47
2022/01/02 01:57:20;;;;;;;;;;;17.30;41.60;;;;;;8302930;28;19996;-48
2022/01/02 02:01:20;;;;;;;;;;;17.20;41.00;;;;;;8302223;28;20405;-47
2022/01/02 02:05:21;;;;;;;;;;;17.20;41.00;;;;;;8302743;28;19926;-48
2022/01/02 02:09:24;;;;;;;;;;;17.20;41.00;;;;;;8301988;28;19914;-48
2022/01/02 02:13:25;;;;;;;;;;;17.20;41.00;;;;;;8301872;28;20386;-48
2022/01/02 02:17:26;;;;;;;;;;;17.20;41.00;;;;;;8302098;28;19937;-49
2022/01/02 02:21:31;;;;;;;;;;;17.20;41.00;;;;;;8301983;28;19968;-48
2022/01/02 02:25:33;;;;;;;;;;;17.20;41.00;;;;;;8301465;28;19918;-49
2022/01/02 02:29:34;;;;;;;;;;;17.20;41.00;;;;;;8301937;28;19917;-48
2022/01/02 02:33:34;;;;;;;;;;;17.10;41.00;;;;;;8301810;28;20333;-48
2022/01/02 02:37:40;;;;;;;;;;;17.10;41.00;;;;;;8301152;28;19925;-48
2022/01/02 02:41:43;;;;;;;;;;;17.10;41.10;;;;;;8304457;28;19964;-48
2022/01/02 02:50:02;;;;;;;;;;;17.10;41.00;;;;;;8301610;28;20294;-47
2022/01/02 02:54:03;;;;;;;;;;;17.10;40.90;;;;;;8300990;28;19925;-48
2022/01/02 02:58:27;;;;;;;;;;;17.10;40.90;;;;;;8300999;28;19917;-47
2022/01/02 03:02:24;;;;;;;;;;;17.00;40.90;;;;;;8300360;28;20675;-48
2022/01/02 03:06:24;;;;;;;;;;;17.00;40.80;;;;;;8300813;28;20007;-48
2022/01/02 03:10:25;;;;;;;;;;;17.00;40.80;;;;;;8300121;28;19913;-47
2022/01/02 03:14:26;;;;;;;;;;;17.00;40.90;;;;;;8300987;28;20263;-47
2022/01/02 03:18:27;;;;;;;;;;;17.00;40.80;;;;;;8300562;28;19996;-49
2022/01/02 03:22:27;;;;;;;;;;;17.00;40.80;;;;;;8299651;28;19937;-48
2022/01/02 03:26:27;;;;;;;;;;;17.00;40.90;;;;;;8300001;28;20371;-48
2022/01/02 03:30:28;;;;;;;;;;;16.90;40.80;;;;;;8300112;28;19914;-48
2022/01/02 03:34:28;;;;;;;;;;;17.00;40.90;;;;;;8299306;28;20012;-47
2022/01/02 03:38:29;;;;;;;;;;;17.00;41.00;;;;;;8299527;28;19921;-48
2022/01/02 03:42:29;;;;;;;;;;;16.90;40.90;;;;;;8299193;28;19929;-48
2022/01/02 03:46:30;;;;;;;;;;;16.90;40.90;;;;;;8298869;28;19925;-47
2022/01/02 03:50:30;;;;;;;;;;;17.00;40.90;;;;;;8299292;28;19914;-47
2022/01/02 03:54:30;;;;;;;;;;;17.00;40.80;;;;;;8299018;28;19918;-47
2022/01/02 03:58:31;;;;;;;;;;;17.00;40.70;;;;;;8298578;28;20330;-48
2022/01/02 04:02:31;;;;;;;;;;;17.00;40.70;;;;;;8299057;28;19941;-49
2022/01/02 04:06:32;;;;;;;;;;;17.00;40.70;;;;;;8298973;28;19925;-48
2022/01/02 04:10:32;;;;;;;;;;;17.00;40.60;;;;;;8298510;28;19920;-48
2022/01/02 04:14:33;;;;;;;;;;;17.00;40.70;;;;;;8298566;28;19941;-49
2022/01/02 04:18:33;;;;;;;;;;;17.10;40.70;;;;;;8298461;28;19924;-47
2022/01/02 04:22:34;;;;;;;;;;;17.10;40.70;;;;;;8297826;28;19933;-48
2022/01/02 04:26:34;;;;;;;;;;;17.10;40.80;;;;;;8298205;28;19981;-48
2022/01/02 04:30:35;;;;;;;;;;;17.10;40.90;;;;;;8298507;28;20313;-47
2022/01/02 04:34:35;;;;;;;;;;;17.10;40.90;;;;;;8297555;28;20379;-48
2022/01/02 04:38:37;;;;;;;;;;;17.10;40.80;;;;;;8297956;28;19917;-48
2022/01/02 04:42:38;;;;;;;;;;;17.10;40.80;;;;;;8297942;28;19979;-48
2022/01/02 04:46:38;;;;;;;;;;;17.10;40.70;;;;;;8297718;28;20399;-46
2022/01/02 04:50:39;;;;;;;;;;;17.10;40.70;;;;;;8297847;28;20044;-47
2022/01/02 04:54:39;;;;;;;;;;;17.20;40.70;;;;;;8297785;28;19933;-49
2022/01/02 04:58:40;;;;;;;;;;;17.20;40.60;;;;;;8297118;28;19924;-47
2022/01/02 05:02:40;;;;;;;;;;;17.10;40.50;;;;;;8297357;28;20019;-47
2022/01/02 05:06:41;;;;;;;;;;;17.10;40.50;;;;;;8296686;28;20377;-47
2022/01/02 05:10:41;;;;;;;;;;;17.10;40.50;;;;;;8304930;28;20424;-47
2022/01/02 05:14:42;;;;;;;;;;;17.10;40.50;;;;;;8308345;28;19918;-46
2022/01/02 05:18:42;;;;;;;;;;;17.10;40.50;;;;;;8308058;28;19921;-47
2022/01/02 05:22:42;;;;;;;;;;;17.10;40.50;;;;;;8307407;28;19925;-47
2022/01/02 05:26:43;;;;;;;;;;;17.10;40.60;;;;;;8307816;28;20417;-47
2022/01/02 05:30:43;;;;;;;;;;;17.10;40.60;;;;;;8307993;28;20017;-47
2022/01/02 05:34:44;;;;;;;;;;;17.10;40.60;;;;;;8307242;28;20317;-48
2022/01/02 05:38:44;;;;;;;;;;;17.10;40.60;;;;;;8307904;28;19922;-47
2022/01/02 05:42:45;;;;;;;;;;;17.10;40.60;;;;;;8307738;28;19922;-47
2022/01/02 05:46:46;;;;;;;;;;;17.00;40.60;;;;;;8307174;28;19929;-47
2022/01/02 05:50:47;;;;;;;;;;;17.00;40.60;;;;;;8308141;28;19959;-47
2022/01/02 05:54:47;;;;;;;;;;;17.00;40.60;;;;;;8307540;28;19917;-47
2022/01/02 05:58:48;;;;;;;;;;;17.00;40.60;;;;;;8306956;28;19917;-47
2022/01/02 06:02:50;;;;;;;;;;;17.00;40.60;;;;;;8307056;28;21293;-47
2022/01/02 06:06:50;;;;;;;;;;;17.00;40.60;;;;;;8307335;28;19920;-47
2022/01/02 06:10:51;;;;;;;;;;;16.90;40.60;;;;;;8307143;28;19921;-47
2022/01/02 06:14:51;;;;;;;;;;;17.00;40.60;;;;;;8307351;28;19918;-48
2022/01/02 06:18:53;;;;;;;;;;;17.00;40.70;;;;;;8307430;28;20004;-49
2022/01/02 06:22:54;;;;;;;;;;;16.90;40.60;;;;;;8300819;28;19925;-47
2022/01/02 06:26:54;;;;;;;;;;;16.90;40.60;;;;;;8302132;28;20381;-48
2022/01/02 06:30:55;;;;;;;;;;;16.90;40.60;;;;;;8301987;28;19960;-47
2022/01/02 06:34:55;;;;;;;;;;;16.90;40.60;;;;;;8301263;28;20299;-47
2022/01/02 06:38:56;;;;;;;;;;;16.90;40.60;;;;;;8301419;28;19968;-47
2022/01/02 06:42:56;;;;;;;;;;;16.90;40.60;;;;;;8301659;28;20298;-48
2022/01/02 06:46:57;;;;;;;;;;;16.90;40.60;;;;;;8300865;28;19921;-47
2022/01/02 06:50:57;;;;;;;;;;;16.90;40.60;;;;;;8301596;28;20264;-47
2022/01/02 06:54:57;;;;;;;;;;;16.90;40.60;;;;;;8301006;28;19918;-47
2022/01/02 06:58:58;;;;;;;;;;;16.90;40.60;;;;;;8300793;28;19939;-47
2022/01/02 07:02:58;;;;;;;;;;;16.80;40.50;;;;;;8300713;28;19921;-47
2022/01/02 07:06:59;;;;;;;;;;;16.90;40.60;;;;;;8300683;28;20063;-47
2022/01/02 07:11:00;;;;;;;;;;;16.90;40.60;;;;;;8300356;28;19991;-47
2022/01/02 07:15:00;;;;;;;;;;;16.80;40.50;;;;;;8300688;28;19921;-47
2022/01/02 07:19:01;;;;;;;;;;;16.80;40.50;;;;;;8300285;28;19914;-47
2022/01/02 07:23:01;;;;;;;;;;;16.80;40.50;;;;;;8299625;28;19926;-47
2022/01/02 07:27:02;;;;;;;;;;;16.80;40.50;;;;;;8300080;28;19914;-49
2022/01/02 07:31:02;;;;;;;;;;;16.80;40.40;;;;;;8299709;28;19918;-47
2022/01/02 07:35:06;;;;;;;;;;;16.80;40.50;;;;;;8299217;28;19917;-47
2022/01/02 07:39:06;;;;;;;;;;;16.80;40.70;;;;;;8299841;28;19918;-47
2022/01/02 07:43:07;;;;;;;;;;;16.80;40.60;;;;;;8299426;28;19921;-47
2022/01/02 07:47:07;;;;;;;;;;;16.80;40.50;;;;;;8299511;28;20010;-47
2022/01/02 07:51:08;;;;;;;;;;;16.80;40.60;;;;;;8299239;28;19918;-48
2022/01/02 07:55:08;;;;;;;;;;;16.80;40.50;;;;;;8299196;28;20446;-49
2022/01/02 07:59:09;;;;;;;;;;;16.80;40.50;;;;;;8298619;28;20290;-47
2022/01/02 08:03:09;;;;;;;;;;;16.80;40.50;;;;;;8299167;28;19922;-47
2022/01/02 08:07:09;;;;;;;;;;;16.80;40.50;;;;;;8299331;28;20417;-47
2022/01/02 08:11:10;;;;;;;;;;;16.80;40.40;;;;;;8297517;28;19928;-47
2022/01/02 08:15:10;;;;;;;;;;;16.80;40.50;;;;;;8298552;28;19917;-48
2022/01/02 08:19:11;;;;;;;;;;;16.80;40.50;;;;;;8298498;28;19914;-47
2022/01/02 08:23:12;;;;;;;;;;;16.80;40.50;;;;;;8297837;28;20391;-47
2022/01/02 08:27:13;;;;;;;;;;;16.80;40.50;;;;;;8298706;28;19914;-48
2022/01/02 08:31:13;;;;;;;;;;;16.80;40.50;;;;;;8298309;28;19918;-48
2022/01/02 08:35:13;;;;;;;;;;;16.80;40.50;;;;;;8297655;28;19999;-47
2022/01/02 08:39:14;;;;;;;;;;;16.80;40.50;;;;;;8298321;28;19919;-47
2022/01/02 08:43:14;;;;;;;;;;;16.80;40.50;;;;;;8297073;28;19933;-46
2022/01/02 08:47:15;;;;;;;;;;;16.80;40.40;;;;;;8297910;28;20337;-46
2022/01/02 08:51:15;;;;;;;;;;;16.70;40.40;;;;;;8297721;28;19918;-46
2022/01/02 08:55:16;;;;;;;;;;;16.80;40.50;;;;;;8297629;28;19913;-46
2022/01/02 08:59:17;;;;;;;;;;;16.70;40.40;;;;;;8297000;28;19980;-46
2022/01/02 09:03:17;;;;;;;;;;;16.80;40.50;;;;;;8297558;28;19928;-47
2022/01/02 09:07:18;;;;;;;;;;;16.70;40.50;;;;;;8297651;28;19917;-47
2022/01/02 09:11:18;;;;;;;;;;;16.70;40.50;;;;;;8297420;28;19918;-47
2022/01/02 09:15:19;;;;;;;;;;;16.80;40.50;;;;;;8297533;28;19928;-47
2022/01/02 09:19:19;;;;;;;;;;;16.70;40.40;;;;;;8296828;28;19918;-47
2022/01/02 09:23:20;;;;;;;;;;;16.80;40.50;;;;;;8297380;28;20339;-47
2022/01/02 09:27:20;;;;;;;;;;;16.70;40.50;;;;;;8297556;28;19921;-47
2022/01/02 09:31:21;;;;;;;;;;;16.80;40.50;;;;;;8296730;28;19921;-46
2022/01/02 09:35:21;;;;;;;;;;;16.70;40.50;;;;;;8297192;28;19921;-46
2022/01/02 09:39:22;;;;;;;;;;;16.70;40.40;;;;;;8296903;28;19941;-46
2022/01/02 09:43:22;;;;;;;;;;;16.70;40.40;;;;;;8296619;28;19931;-50
2022/01/02 09:47:22;;;;;;;;;;;16.70;40.40;;;;;;8297399;28;19921;-47
2022/01/02 09:51:24;;;;;;;;;;;16.70;40.40;;;;;;8296797;28;20401;-46
2022/01/02 09:55:25;;;;;;;;;;;16.80;40.40;;;;;;8298297;28;19961;-46
2022/01/02 09:59:25;;;;;;;;;;;16.80;40.50;;;;;;8302766;28;20394;-47
2022/01/02 10:03:40;;;;;;;;;;;16.80;40.40;;;;;;8302654;28;20406;-46
2022/01/02 10:07:40;;;;;;;;;;;16.80;40.50;;;;;;8302344;28;19917;-47
2022/01/02 10:11:41;;;;;;;;;;;16.80;40.50;;;;;;8302657;28;19939;-47
2022/01/02 10:15:43;;;;;;;;;;;16.80;40.50;;;;;;8302356;28;19957;-47
2022/01/02 10:19:43;;;;;;;;;;;16.80;40.50;;;;;;8301878;28;19917;-47
2022/01/02 10:23:44;;;;;;;;;;;16.80;40.50;;;;;;8302146;28;20370;-47
2022/01/02 10:27:44;;;;;;;;;;;16.90;40.70;;;;;;8302129;28;19984;-47
2022/01/02 10:31:45;;;;;;;;;;;16.90;40.60;;;;;;8301476;28;19918;-48
2022/01/02 10:35:45;;;;;;;;;;;16.90;40.40;;;;;;8301668;28;19917;-47
2022/01/02 10:39:46;;;;;;;;;;;16.90;40.50;;;;;;8301950;28;19918;-46
2022/01/02 10:43:46;;;;;;;;;;;17.00;40.40;;;;;;8301071;28;19968;-47
2022/01/02 10:47:46;;;;;;;;;;;17.00;40.50;;;;;;8301550;28;19922;-47
2022/01/02 10:51:47;;;;;;;;;;;17.00;40.30;;;;;;8301341;28;19917;-47
2022/01/02 10:55:47;;;;;;;;;;;17.10;40.30;;;;;;8300754;28;20108;-46
2022/01/02 10:59:48;;;;;;;;;;;17.10;40.30;;;;;;8301101;28;20290;-46
2022/01/02 11:03:49;;;;;;;;;;;17.10;40.50;;;;;;8300427;28;20029;-48
2022/01/02 11:07:51;;;;;;;;;;;17.20;40.50;;;;;;8299775;28;20382;-46
2022/01/02 11:11:51;;;;;;;;;;;17.20;40.50;;;;;;8300220;28;20287;-47
2022/01/02 11:15:53;;;;;;;;;;;17.20;40.50;;;;;;8300516;28;19914;-48
2022/01/02 11:19:53;;;;;;;;;;;17.20;40.50;;;;;;8299906;28;20426;-47
2022/01/02 11:24:12;;;;;;;;;;;17.20;40.60;;;;;;8300769;28;19976;-47
2022/01/02 11:28:26;;;;;;;;;;;17.20;40.60;;;;;;8300350;28;19960;-48
2022/01/02 11:32:27;;;;;;;;;;;17.20;40.60;;;;;;8299777;28;19922;-47
2022/01/02 11:36:30;;;;;;;;;;;17.20;40.60;;;;;;8299764;28;19918;-47
2022/01/02 11:40:43;;;;;;;;;;;17.30;40.60;;;;;;8299186;28;19918;-47
2022/01/02 11:44:47;;;;;;;;;;;17.20;40.60;;;;;;8299505;28;20384;-46
2022/01/02 11:49:03;;;;;;;;;;;17.20;40.60;;;;;;8299681;28;20367;-46
2022/01/02 11:53:13;;;;;;;;;;;17.30;40.70;;;;;;8299033;28;19947;-48
2022/01/02 11:57:20;;;;;;;;;;;17.30;40.70;;;;;;8299054;28;19917;-48
2022/01/02 12:01:39;;;;;;;;;;;17.20;40.60;;;;;;8298624;28;19922;-47
2022/01/02 12:05:59;;;;;;;;;;;17.20;40.80;;;;;;8298827;28;20298;-48
2022/01/02 12:10:21;;;;;;;;;;;17.20;40.90;;;;;;8298934;28;19922;-49
2022/01/02 12:14:22;;;;;;;;;;;17.20;40.80;;;;;;8298613;28;19918;-49
2022/01/02 12:18:29;;;;;;;;;;;17.20;40.80;;;;;;8298248;28;19913;-49
2022/01/02 12:22:39;;;;;;;;;;;17.20;40.80;;;;;;8297929;28;19932;-49
2022/01/02 12:26:40;;;;;;;;;;;17.20;40.90;;;;;;8298436;28;19918;-48
2022/01/02 12:30:41;;;;;;;;;;;17.20;40.80;;;;;;8298578;28;20329;-47
2022/01/02 12:34:42;;;;;;;;;;;17.20;40.80;;;;;;8297842;28;19917;-49
2022/01/02 12:38:51;;;;;;;;;;;17.20;40.90;;;;;;8298188;28;20296;-48
2022/01/02 12:42:52;;;;;;;;;;;17.20;40.90;;;;;;8297976;28;19926;-48
2022/01/02 12:46:53;;;;;;;;;;;17.20;40.90;;;;;;8297839;28;20282;-49
2022/01/02 12:51:06;;;;;;;;;;;17.20;40.90;;;;;;8298005;28;20362;-47
2022/01/02 12:55:09;;;;;;;;;;;17.20;40.90;;;;;;8297691;28;19913;-45
2022/01/02 12:59:28;;;;;;;;;;;17.20;40.90;;;;;;8297342;28;19926;-47
2022/01/02 13:03:28;;;;;;;;;;;17.20;40.90;;;;;;8297760;28;19926;-48
2022/01/02 13:07:31;;;;;;;;;;;17.20;41.00;;;;;;8296988;28;20013;-46
2022/01/02 13:11:35;;;;;;;;;;;17.20;41.00;;;;;;8297425;28;19918;-46
2022/01/02 13:15:35;;;;;;;;;;;17.20;41.50;;;;;;8297293;28;19919;-47
2022/01/02 13:19:38;;;;;;;;;;;17.20;41.00;;;;;;8296960;28;19917;-49
2022/01/02 13:23:38;;;;;;;;;;;17.20;41.00;;;;;;8297471;28;19989;-46
2022/01/02 13:27:55;;;;;;;;;;;17.20;41.10;;;;;;8297186;28;20432;-47
2022/01/02 13:31:57;;;;;;;;;;;17.20;41.00;;;;;;8301320;28;19964;-47
2022/01/02 13:36:08;;;;;;;;;;;17.20;41.00;;;;;;8303831;28;19914;-46
2022/01/02 13:40:10;;;;;;;;;;;17.20;41.00;;;;;;8303487;28;19993;-47
2022/01/02 13:44:14;;;;;;;;;;;17.20;41.00;;;;;;8302925;28;20421;-48
2022/01/02 13:48:16;;;;;;;;;;;17.20;41.00;;;;;;8303124;28;19922;-50
2022/01/02 13:52:17;;;;;;;;;;;17.20;41.00;;;;;;8303234;28;20267;-48
2022/01/02 13:56:20;;;;;;;;;;;17.20;41.00;;;;;;8302588;28;19918;-48
2022/01/02 14:00:22;;;;;;;;;;;17.20;41.10;;;;;;8303136;28;19918;-47
2022/01/02 14:04:22;;;;;;;;;;;17.20;41.00;;;;;;8302463;28;20008;-50
2022/01/02 14:08:24;;;;;;;;;;;17.20;41.00;;;;;;8302611;28;19926;-46
2022/01/02 14:12:25;;;;;;;;;;;17.20;41.10;;;;;;8302404;28;19917;-46
2022/01/02 14:20:35;;;;;;;;;;;17.20;41.00;;;;;;8303779;28;19914;-47
2022/01/02 14:24:36;;;;;;;;;;;17.20;41.10;;;;;;8302498;28;19925;-47
2022/01/02 14:28:36;;;;;;;;;;;17.20;41.10;;;;;;8301780;28;19917;-47
2022/01/02 14:32:37;;;;;;;;;;;17.20;41.10;;;;;;8302100;28;19918;-47
2022/01/02 14:36:37;;;;;;;;;;;17.20;41.10;;;;;;8301848;28;20272;-46
2022/01/02 14:40:38;;;;;;;;;;;17.20;41.10;;;;;;8300787;28;20052;-47
2022/01/02 14:44:39;;;;;;;;;;;17.20;41.20;;;;;;8301370;28;19979;-47
2022/01/02 14:48:39;;;;;;;;;;;17.20;41.20;;;;;;8301731;28;19968;-48
2022/01/02 14:52:40;;;;;;;;;;;17.20;41.10;;;;;;8300995;28;19924;-47
2022/01/02 14:56:41;;;;;;;;;;;17.20;41.20;;;;;;8301484;28;20262;-48
2022/01/02 15:00:42;;;;;;;;;;;17.20;41.10;;;;;;8301126;28;20275;-48
2022/01/02 15:04:43;;;;;;;;;;;17.20;41.20;;;;;;8300545;28;19921;-47
2022/01/02 15:08:43;;;;;;;;;;;17.20;41.10;;;;;;8300811;28;19918;-48
2022/01/02 15:12:44;;;;;;;;;;;17.20;41.30;;;;;;8301081;28;19917;-48
2022/01/02 15:16:48;;;;;;;;;;;17.20;41.20;;;;;;8300085;28;19972;-47
2022/01/02 15:20:49;;;;;;;;;;;17.20;41.20;;;;;;8300439;28;19924;-47
2022/01/02 15:24:49;;;;;;;;;;;17.20;41.40;;;;;;8300507;28;19921;-48
2022/01/02 15:28:50;;;;;;;;;;;17.20;41.30;;;;;;8299750;28;19923;-48
2022/01/02 15:32:50;;;;;;;;;;;17.20;41.30;;;;;;8300161;28;19925;-48
2022/01/02 15:36:51;;;;;;;;;;;17.20;41.40;;;;;;8299490;28;20271;-48
2022/01/02 15:40:51;;;;;;;;;;;17.20;41.40;;;;;;8298836;28;19921;-47
2022/01/02 15:44:52;;;;;;;;;;;17.10;41.30;;;;;;8299614;28;20012;-48
2022/01/02 15:48:52;;;;;;;;;;;17.20;41.50;;;;;;8299516;28;20283;-46
2022/01/02 15:52:53;;;;;;;;;;;17.10;41.30;;;;;;8298669;28;19937;-46
2022/01/02 15:56:53;;;;;;;;;;;17.10;41.40;;;;;;8299367;28;19953;-46
2022/01/02 16:00:54;;;;;;;;;;;17.10;41.30;;;;;;8299113;28;19960;-47
2022/01/02 16:04:54;;;;;;;;;;;17.20;41.40;;;;;;8298715;28;19922;-46
2022/01/02 16:08:55;;;;;;;;;;;17.20;41.40;;;;;;8298803;28;19917;-46
2022/01/02 16:12:55;;;;;;;;;;;17.10;41.30;;;;;;8298360;28;20004;-47
2022/01/02 16:16:55;;;;;;;;;;;17.20;41.40;;;;;;8298180;28;19918;-47
2022/01/02 16:20:56;;;;;;;;;;;17.10;41.40;;;;;;8298739;28;20437;-49
2022/01/02 16:24:56;;;;;;;;;;;17.20;41.40;;;;;;8298659;28;20412;-49
2022/01/02 16:28:58;;;;;;;;;;;17.20;41.40;;;;;;8297938;28;19918;-48
2022/01/02 16:32:59;;;;;;;;;;;17.10;41.40;;;;;;8298643;28;20004;-47
2022/01/02 16:36:59;;;;;;;;;;;17.10;41.40;;;;;;8297946;28;19928;-48
2022/01/02 16:41:00;;;;;;;;;;;17.10;41.40;;;;;;8297732;28;19917;-46
2022/01/02 16:45:00;;;;;;;;;;;17.10;41.40;;;;;;8298589;28;19982;-48
2022/01/02 16:49:00;;;;;;;;;;;17.10;41.50;;;;;;8297967;28;19921;-47
2022/01/02 16:53:01;;;;;;;;;;;17.10;41.40;;;;;;8297329;28;19928;-47
2022/01/02 16:57:02;;;;;;;;;;;17.10;41.30;;;;;;8297759;28;19940;-49
2022/01/02 17:01:02;;;;;;;;;;;17.20;41.40;;;;;;8297569;28;19970;-49
2022/01/02 17:05:05;;;;;;;;;;;17.10;41.30;;;;;;8296069;28;19929;-47
2022/01/02 17:09:05;;;;;;;;;;;17.10;41.30;;;;;;8297614;28;19950;-48
2022/01/02 17:13:07;;;;;;;;;;;17.10;41.40;;;;;;8297540;28;19918;-48
2022/01/02 17:17:08;;;;;;;;;;;17.10;41.30;;;;;;8296913;28;20334;-47
2022/01/02 17:21:08;;;;;;;;;;;17.10;41.40;;;;;;8297413;28;19992;-46
2022/01/02 17:25:09;;;;;;;;;;;17.10;41.40;;;;;;8297639;28;20000;-46
2022/01/02 17:29:10;;;;;;;;;;;17.10;41.40;;;;;;8296165;28;19984;-47
2022/01/02 17:33:12;;;;;;;;;;;17.10;41.40;;;;;;8297416;28;19944;-47
2022/01/02 17:37:12;;;;;;;;;;;17.10;41.40;;;;;;8297066;28;19964;-49
2022/01/02 17:41:15;;;;;;;;;;;17.10;41.40;;;;;;8296477;28;19952;-47
2022/01/02 17:45:16;;;;;;;;;;;17.10;41.40;;;;;;8297177;28;19933;-47
2022/01/02 17:49:18;;;;;;;;;;;17.10;41.40;;;;;;8296711;28;19918;-47
2022/01/02 17:53:18;;;;;;;;;;;17.10;41.40;;;;;;8296025;28;19924;-47
2022/01/02 17:57:19;;;;;;;;;;;17.10;41.40;;;;;;8296579;28;19956;-47
2022/01/02 18:01:22;;;;;;;;;;;17.10;41.40;;;;;;8295904;28;19948;-47
2022/01/02 18:05:23;;;;;;;;;;;17.10;41.40;;;;;;8296246;28;19956;-47
2022/01/02 18:09:27;;;;;;;;;;;17.10;41.40;;;;;;8296325;28;20268;-47
2022/01/02 18:13:29;;;;;;;;;;;17.10;41.40;;;;;;8295878;28;20034;-47
2022/01/02 18:17:32;;;;;;;;;;;17.10;41.40;;;;;;8299943;28;19956;-47
2022/01/02 18:21:33;;;;;;;;;;;17.10;41.40;;;;;;8302059;28;20004;-46
2022/01/02 18:25:34;;;;;;;;;;;17.10;41.30;;;;;;8301650;28;19944;-46
2022/01/02 18:29:35;;;;;;;;;;;17.10;41.40;;;;;;8301932;28;19922;-47
2022/01/02 18:33:36;;;;;;;;;;;17.10;41.90;;;;;;8301728;28;19925;-46
2022/01/02 18:37:36;;;;;;;;;;;17.10;41.40;;;;;;8301303;28;19917;-46
2022/01/02 18:41:37;;;;;;;;;;;17.10;41.30;;;;;;8301697;28;19914;-46
2022/01/02 18:45:37;;;;;;;;;;;17.10;41.40;;;;;;8301517;28;19964;-46
2022/01/02 18:49:38;;;;;;;;;;;17.10;41.30;;;;;;8300501;28;19957;-46
2022/01/02 18:53:38;;;;;;;;;;;17.10;41.30;;;;;;8301045;28;19924;-47
2022/01/02 18:57:39;;;;;;;;;;;17.10;41.30;;;;;;8301093;28;20299;-46
2022/01/02 19:01:40;;;;;;;;;;;17.10;41.30;;;;;;8300494;28;20009;-51
2022/01/02 19:05:40;;;;;;;;;;;17.10;41.30;;;;;;8301039;28;19948;-49
2022/01/02 19:09:42;;;;;;;;;;;17.10;41.30;;;;;;8300567;28;20024;-50
2022/01/02 19:13:43;;;;;;;;;;;17.10;41.30;;;;;;8299797;28;19963;-47
2022/01/02 19:17:43;;;;;;;;;;;17.10;41.30;;;;;;8300235;28;20410;-47
2022/01/02 19:21:45;;;;;;;;;;;17.10;41.30;;;;;;8300400;28;20000;-47
2022/01/02 19:25:45;;;;;;;;;;;17.10;41.30;;;;;;8299185;28;19984;-47
2022/01/02 19:29:46;;;;;;;;;;;17.10;41.30;;;;;;8299315;28;20000;-48
2022/01/02 19:33:47;;;;;;;;;;;17.10;41.30;;;;;;8300069;28;20410;-48
2022/01/02 19:37:47;;;;;;;;;;;17.10;41.30;;;;;;8299569;28;19918;-47
2022/01/02 19:41:48;;;;;;;;;;;17.10;41.30;;;;;;8300053;28;19953;-47
2022/01/02 19:45:48;;;;;;;;;;;17.10;41.30;;;;;;8299969;28;20316;-47
2022/01/02 19:49:51;;;;;;;;;;;17.10;41.30;;;;;;8298836;28;19959;-47
2022/01/02 19:53:52;;;;;;;;;;;17.10;41.30;;;;;;8299574;28;19922;-48
2022/01/02 19:57:52;;;;;;;;;;;17.10;41.30;;;;;;8299114;28;20317;-47
2022/01/02 20:01:53;;;;;;;;;;;17.10;41.30;;;;;;8298839;28;20397;-47
2022/01/02 20:05:53;;;;;;;;;;;17.00;41.20;;;;;;8298143;28;19925;-48
2022/01/02 20:09:54;;;;;;;;;;;17.00;41.30;;;;;;8298985;28;19971;-47
2022/01/02 20:13:55;;;;;;;;;;;17.00;41.20;;;;;;8298235;28;19917;-48
2022/01/02 20:17:55;;;;;;;;;;;17.00;41.30;;;;;;8298634;28;19922;-52
2022/01/02 20:21:56;;;;;;;;;;;17.00;41.30;;;;;;8298709;28;19913;-48
2022/01/02 20:25:57;;;;;;;;;;;17.00;41.30;;;;;;8297964;28;19925;-47
2022/01/02 20:29:57;;;;;;;;;;;17.00;41.30;;;;;;8298214;28;19921;-47
2022/01/02 20:33:58;;;;;;;;;;;17.00;41.30;;;;;;8298241;28;19921;-48
2022/01/02 20:37:58;;;;;;;;;;;17.10;41.30;;;;;;8297527;28;19918;-49
2022/01/02 20:42:00;;;;;;;;;;;17.00;41.30;;;;;;8297503;28;19964;-48
2022/01/02 20:46:00;;;;;;;;;;;17.10;41.40;;;;;;8297871;28;19929;-48
2022/01/02 20:50:01;;;;;;;;;;;17.00;41.30;;;;;;8297594;28;20012;-47
2022/01/02 20:54:01;;;;;;;;;;;17.00;41.30;;;;;;8298189;28;19928;-47
2022/01/02 20:58:02;;;;;;;;;;;17.10;41.40;;;;;;8297943;28;20363;-48
2022/01/02 21:02:03;;;;;;;;;;;17.00;41.30;;;;;;8297407;28;19969;-48
2022/01/02 21:06:06;;;;;;;;;;;17.10;41.40;;;;;;8298087;28;20284;-50
2022/01/02 21:10:07;;;;;;;;;;;17.00;41.30;;;;;;8297738;28;20405;-47
2022/01/02 21:14:07;;;;;;;;;;;17.10;41.40;;;;;;8297184;28;19948;-48
2022/01/02 21:18:08;;;;;;;;;;;17.10;41.40;;;;;;8297649;28;19918;-48
2022/01/02 21:22:08;;;;;;;;;;;17.10;41.40;;;;;;8297673;28;19914;-47
2022/01/02 21:26:09;;;;;;;;;;;17.10;41.40;;;;;;8296787;28;19925;-49
2022/01/02 21:30:10;;;;;;;;;;;17.10;41.40;;;;;;8297183;28;19917;-48
2022/01/02 21:34:11;;;;;;;;;;;17.10;41.40;;;;;;8297077;28;20004;-48
2022/01/02 21:38:11;;;;;;;;;;;17.10;41.40;;;;;;8296701;28;19921;-48
2022/01/02 21:42:12;;;;;;;;;;;17.10;41.30;;;;;;8297310;28;20363;-47
2022/01/02 21:46:12;;;;;;;;;;;17.10;41.30;;;;;;8297381;28;20354;-47
2022/01/02 21:50:13;;;;;;;;;;;17.10;41.40;;;;;;8296690;28;20012;-50
2022/01/02 21:54:14;;;;;;;;;;;17.10;41.40;;;;;;8303671;28;19948;-48
2022/01/02 21:58:15;;;;;;;;;;;17.10;41.40;;;;;;8303267;28;19918;-49
2022/01/02 22:02:19;;;;;;;;;;;17.10;41.40;;;;;;8302698;28;19914;-50
2022/01/02 22:06:20;;;;;;;;;;;17.10;41.40;;;;;;8303090;28;19922;-47
2022/01/02 22:10:21;;;;;;;;;;;17.10;41.40;;;;;;8302358;28;19959;-48
2022/01/02 22:14:21;;;;;;;;;;;17.10;41.40;;;;;;8302541;28;19940;-48
2022/01/02 22:18:23;;;;;;;;;;;17.10;41.40;;;;;;8302728;28;20024;-48
2022/01/02 22:22:24;;;;;;;;;;;17.10;41.40;;;;;;8302082;28;20024;-51
2022/01/02 22:26:25;;;;;;;;;;;17.10;41.50;;;;;;8302148;28;19948;-48
2022/01/02 22:30:26;;;;;;;;;;;17.10;41.40;;;;;;8302168;28;20462;-47
2022/01/02 22:34:26;;;;;;;;;;;17.10;41.40;;;;;;8301468;28;19964;-50
2022/01/02 22:38:28;;;;;;;;;;;17.10;41.30;;;;;;8301885;28;20382;-48
2022/01/02 22:42:29;;;;;;;;;;;17.20;41.40;;;;;;8301931;28;20367;-47
2022/01/02 22:46:31;;;;;;;;;;;17.20;41.30;;;;;;8301663;28;19922;-46
2022/01/02 22:50:33;;;;;;;;;;;17.20;41.30;;;;;;8301450;28;19976;-47
2022/01/02 22:54:34;;;;;;;;;;;17.20;41.30;;;;;;8301628;28;20287;-47
2022/01/02 22:58:35;;;;;;;;;;;17.20;41.30;;;;;;8301090;28;19913;-48
2022/01/02 23:02:36;;;;;;;;;;;17.20;41.30;;;;;;8299666;28;20333;-48
2022/01/02 23:06:37;;;;;;;;;;;17.20;41.30;;;;;;8300533;28;20382;-46
2022/01/02 23:10:37;;;;;;;;;;;17.20;41.30;;;;;;8300419;28;19918;-46
2022/01/02 23:14:38;;;;;;;;;;;17.20;41.30;;;;;;8301005;28;19924;-49
2022/01/02 23:18:40;;;;;;;;;;;17.20;41.40;;;;;;8301013;28;20000;-46
2022/01/02 23:22:41;;;;;;;;;;;17.20;41.40;;;;;;8300244;28;19926;-48
2022/01/02 23:26:42;;;;;;;;;;;17.20;41.40;;;;;;8300367;28;19944;-47
2022/01/02 23:30:43;;;;;;;;;;;17.20;41.40;;;;;;8300210;28;20294;-47
2022/01/02 23:34:43;;;;;;;;;;;17.10;41.40;;;;;;8299657;28;20016;-47